createdAt,value
2023-01-19T00:01:28.698Z,25.13
2023-01-19T00:06:31.443Z,27.60
2023-01-19T00:11:32.952Z,27.37
2023-01-19T00:16:34.470Z,26.43
2023-01-19T00:21:35.971Z,23.43
2023-01-19T00:26:40.331Z,25.70
2023-01-19T00:31:41.893Z,27.85
2023-01-19T00:36:43.446Z,27.87
2023-01-19T00:42:03.290Z,26.50
2023-01-19T00:47:05.725Z,24.70
2023-01-19T00:52:07.200Z,27.70
2023-01-19T00:57:08.648Z,38.53
2023-01-19T01:02:11.470Z,28.07
2023-01-19T01:07:13.080Z,26.37
2023-01-19T01:12:14.587Z,27.63
2023-01-19T01:17:16.445Z,23.10
2023-01-19T01:22:18.443Z,22.87
2023-01-19T01:27:19.917Z,27.07
2023-01-19T01:32:21.314Z,25.27
2023-01-19T01:37:22.793Z,27.37
2023-01-19T01:42:29.588Z,26.77
2023-01-19T01:47:42.706Z,26.73
2023-01-19T01:53:06.473Z,20.43
2023-01-19T01:58:11.264Z,20.93
2023-01-19T02:03:12.773Z,21.17
2023-01-19T02:08:38.548Z,21.63
2023-01-19T02:13:45.267Z,29.73
2023-01-19T02:18:47.050Z,21.57
2023-01-19T02:23:50.755Z,21.60
2023-01-19T02:28:58.382Z,24.83
2023-01-19T02:34:00.867Z,24.57
2023-01-19T02:39:03.967Z,21.13
2023-01-19T02:44:08.189Z,20.27
2023-01-19T02:49:09.637Z,23.55
2023-01-19T02:54:25.522Z,21.57
2023-01-19T02:59:53.825Z,19.07
2023-01-19T03:05:27.921Z,23.07
2023-01-19T03:16:23.350Z,23.00
2023-01-19T03:21:28.749Z,22.73
2023-01-19T03:26:37.386Z,24.03
2023-01-19T03:31:42.729Z,24.73
2023-01-19T03:36:48.865Z,22.47
2023-01-19T03:41:56.080Z,22.67
2023-01-19T03:46:59.032Z,22.90
2023-01-19T03:52:01.005Z,19.37
2023-01-19T03:57:02.516Z,23.50
2023-01-19T04:02:04.043Z,20.77
2023-01-19T04:07:05.541Z,22.17
2023-01-19T04:12:07.294Z,20.03
2023-01-19T04:17:09.191Z,19.93
2023-01-19T04:22:10.767Z,22.20
2023-01-19T04:27:12.175Z,19.20
2023-01-19T04:32:14.227Z,21.87
2023-01-19T04:37:15.710Z,20.10
2023-01-19T04:42:17.188Z,22.37
2023-01-19T04:47:18.656Z,20.17
2023-01-19T04:52:20.271Z,17.70
2023-01-19T04:57:21.794Z,21.97
2023-01-19T05:02:23.905Z,18.57
2023-01-19T05:07:25.674Z,21.73
2023-01-19T05:12:27.386Z,16.57
2023-01-19T05:17:29.381Z,18.83
2023-01-19T05:22:31.007Z,18.17
2023-01-19T05:27:32.491Z,15.17
2023-01-19T05:32:34.064Z,17.33
2023-01-19T05:37:35.565Z,19.67
2023-01-19T05:42:37.178Z,19.03
2023-01-19T05:47:39.870Z,22.93
2023-01-19T05:52:41.400Z,22.07
2023-01-19T05:57:43.267Z,19.10
2023-01-19T06:02:45.081Z,22.30
2023-01-19T06:07:46.525Z,23.27
2023-01-19T06:12:48.701Z,21.70
2023-01-19T06:17:50.100Z,20.53
2023-01-19T06:22:51.921Z,20.03
2023-01-19T06:27:53.634Z,22.00
2023-01-19T06:32:55.153Z,20.93
2023-01-19T06:37:56.645Z,21.43
2023-01-19T06:42:58.483Z,23.53
2023-01-19T06:48:00.687Z,16.77
2023-01-19T06:53:02.677Z,17.57
2023-01-19T06:58:04.735Z,16.03
2023-01-19T07:03:09.528Z,17.97
2023-01-19T07:08:11.085Z,17.53
2023-01-19T07:13:12.561Z,20.87
2023-01-19T07:18:14.105Z,16.27
2023-01-19T07:23:16.225Z,14.53
2023-01-19T07:28:17.769Z,14.20
2023-01-19T07:33:19.272Z,12.03
2023-01-19T07:38:21.112Z,15.07
2023-01-19T07:43:22.649Z,13.10
2023-01-19T07:48:24.203Z,12.27
2023-01-19T07:53:25.701Z,17.80
2023-01-19T07:58:27.806Z,13.97
2023-01-19T08:03:29.294Z,14.27
2023-01-19T08:08:34.357Z,15.33
2023-01-19T08:13:35.866Z,16.37
2023-01-19T08:18:37.488Z,18.87
2023-01-19T08:23:39.163Z,15.83
2023-01-19T08:28:40.670Z,17.37
2023-01-19T08:33:42.977Z,15.50
2023-01-19T08:38:47.835Z,12.17
2023-01-19T08:43:49.692Z,11.53
2023-01-19T08:48:51.230Z,8.03
2023-01-19T08:53:52.647Z,8.30
2023-01-19T08:59:08.122Z,4.30
2023-01-19T09:04:09.854Z,6.73
2023-01-19T09:09:11.369Z,6.90
2023-01-19T09:14:12.987Z,8.03
2023-01-19T09:19:14.483Z,11.47
2023-01-19T09:24:16.230Z,10.37
2023-01-19T09:29:17.754Z,10.67
2023-01-19T09:34:19.384Z,9.30
2023-01-19T09:39:20.944Z,15.20
2023-01-19T09:44:32.038Z,9.33
2023-01-19T09:49:44.474Z,7.97
2023-01-19T09:54:57.550Z,10.00
2023-01-19T09:59:59.766Z,9.13
2023-01-19T10:05:38.881Z,11.53
2023-01-19T10:10:45.329Z,8.80
2023-01-19T10:16:05.335Z,10.70
2023-01-19T10:21:14.781Z,12.93
2023-01-19T10:26:23.182Z,11.60
2023-01-19T10:31:25.692Z,13.43
2023-01-19T10:36:34.522Z,11.27
2023-01-19T10:42:03.630Z,9.93
2023-01-19T10:47:16.551Z,5.73
2023-01-19T10:52:29.529Z,4.50
2023-01-19T10:57:38.173Z,3.80
2023-01-19T11:02:50.263Z,2.87
2023-01-19T11:07:52.023Z,2.23
2023-01-19T11:13:01.343Z,2.33
2023-01-19T11:18:05.797Z,3.57
2023-01-19T11:23:16.174Z,2.83
2023-01-19T11:28:27.732Z,2.67
2023-01-19T11:33:45.426Z,2.07
2023-01-19T11:38:50.587Z,2.43
2023-01-19T11:43:55.135Z,4.10
2023-01-19T11:49:03.586Z,3.65
2023-01-19T11:54:19.119Z,6.60
2023-01-19T11:59:23.115Z,7.73
2023-01-19T12:04:32.799Z,11.95
2023-01-19T12:09:42.916Z,10.33
2023-01-19T12:15:00.302Z,13.43
2023-01-19T12:20:34.005Z,11.97
2023-01-19T12:25:45.168Z,15.60
2023-01-19T12:30:46.781Z,11.63
2023-01-19T12:36:00.822Z,12.20
2023-01-19T12:41:24.137Z,13.68
2023-01-19T12:46:25.595Z,13.00
2023-01-19T12:51:27.221Z,14.83
2023-01-19T12:56:34.686Z,15.57
2023-01-19T13:01:36.189Z,10.50
2023-01-19T13:06:49.626Z,11.33
2023-01-19T13:12:20.382Z,7.40
2023-01-19T13:17:30.150Z,6.77
2023-01-19T13:22:47.298Z,9.43
2023-01-19T13:27:49.949Z,8.23
2023-01-19T13:32:51.629Z,6.93
2023-01-19T13:37:53.840Z,4.67
2023-01-19T13:42:56.453Z,9.30
2023-01-19T13:48:00.914Z,8.10
2023-01-19T13:53:04.593Z,7.40
2023-01-19T13:58:20.691Z,12.43
2023-01-19T14:03:24.192Z,7.63
2023-01-19T14:08:26.149Z,9.87
2023-01-19T14:13:34.839Z,7.40
2023-01-19T14:18:36.625Z,8.77
2023-01-19T14:23:42.828Z,9.50
2023-01-19T14:28:44.539Z,7.97
2023-01-19T14:33:47.282Z,11.13
2023-01-19T14:38:50.979Z,6.77
2023-01-19T14:43:55.871Z,13.93
2023-01-19T14:49:02.968Z,6.23
2023-01-19T14:54:04.959Z,9.17
2023-01-19T14:59:10.591Z,12.73
2023-01-19T15:04:12.017Z,7.83
2023-01-19T15:09:14.314Z,7.10
2023-01-19T15:14:18.146Z,10.20
2023-01-19T15:19:19.692Z,11.33
2023-01-19T15:24:21.255Z,16.70
2023-01-19T15:29:24.639Z,14.20
2023-01-19T15:34:26.165Z,12.57
2023-01-19T15:39:27.845Z,12.63
2023-01-19T15:44:30.139Z,9.23
2023-01-19T15:49:31.628Z,9.70
2023-01-19T15:54:33.182Z,7.27
2023-01-19T15:59:34.791Z,5.60
2023-01-19T16:04:36.225Z,5.80
2023-01-19T16:09:37.706Z,8.67
2023-01-19T16:14:39.145Z,9.33
2023-01-19T16:19:40.564Z,10.60
2023-01-19T16:24:42.040Z,7.53
2023-01-19T16:29:43.513Z,15.30
2023-01-19T16:34:45.191Z,6.53
2023-01-19T16:39:50.662Z,9.70
2023-01-19T16:44:52.293Z,19.93
2023-01-19T16:49:54.100Z,11.83
2023-01-19T16:54:55.835Z,18.43
2023-01-19T16:59:57.315Z,19.13
2023-01-19T17:05:01.690Z,17.47
2023-01-19T17:10:03.395Z,10.43
2023-01-19T17:15:05.410Z,14.80
2023-01-19T17:20:07.584Z,13.73
2023-01-19T17:25:10.170Z,13.23
2023-01-19T17:30:12.078Z,10.30
2023-01-19T17:35:13.689Z,14.23
2023-01-19T17:40:15.545Z,27.23
2023-01-19T17:45:17.025Z,19.50
2023-01-19T17:50:18.646Z,11.27
2023-01-19T17:55:20.116Z,17.87
2023-01-19T18:00:21.901Z,13.47
2023-01-19T18:05:23.510Z,9.00
2023-01-19T18:10:25.007Z,4.80
2023-01-19T18:15:26.508Z,3.37
2023-01-19T18:20:29.418Z,6.43
2023-01-19T18:25:32.465Z,7.03
2023-01-19T18:30:35.402Z,9.10
2023-01-19T18:35:38.815Z,8.37
2023-01-19T18:40:40.417Z,7.20
2023-01-19T18:45:42.200Z,7.43
2023-01-19T18:50:43.875Z,8.77
2023-01-19T18:55:55.775Z,8.77
2023-01-19T19:01:01.363Z,11.07
2023-01-19T19:06:04.042Z,7.97
2023-01-19T19:11:09.115Z,5.30
2023-01-19T19:16:12.661Z,10.90
2023-01-19T19:21:14.392Z,9.13
2023-01-19T19:26:15.891Z,9.50
2023-01-19T19:31:20.509Z,5.80
2023-01-19T19:36:23.467Z,5.00
2023-01-19T19:41:26.957Z,4.67
2023-01-19T19:46:28.691Z,11.23
2023-01-19T19:51:30.318Z,13.70
2023-01-19T19:56:34.204Z,7.50
2023-01-19T20:01:36.000Z,9.65
2023-01-19T20:06:44.349Z,12.17
2023-01-19T20:11:46.711Z,9.00
2023-01-19T20:16:48.211Z,7.80
2023-01-19T20:21:49.702Z,4.17
2023-01-19T20:26:52.944Z,3.97
2023-01-19T20:31:56.428Z,6.17
2023-01-19T20:36:57.918Z,6.87
2023-01-19T20:41:59.348Z,5.20
2023-01-19T20:47:00.851Z,4.13
2023-01-19T20:52:02.530Z,3.10
2023-01-19T20:57:04.003Z,4.23
2023-01-19T21:02:07.952Z,3.77
2023-01-19T21:07:09.717Z,6.60
2023-01-19T21:12:11.764Z,6.63
2023-01-19T21:17:13.253Z,5.17
2023-01-19T21:22:14.821Z,2.60
2023-01-19T21:27:16.295Z,7.57
2023-01-19T21:32:17.778Z,5.40
2023-01-19T21:37:19.525Z,3.53
2023-01-19T21:42:21.500Z,4.00
2023-01-19T21:47:22.931Z,2.40
2023-01-19T21:52:24.425Z,2.53
2023-01-19T21:57:25.936Z,2.13
2023-01-19T22:02:38.187Z,1.53
2023-01-19T22:07:40.214Z,3.33
2023-01-19T22:12:41.716Z,0.73
2023-01-19T22:17:43.224Z,2.03
2023-01-19T22:22:44.730Z,1.30
2023-01-19T22:27:46.163Z,1.30
2023-01-19T22:32:47.650Z,0.73
2023-01-19T22:37:49.137Z,0.43
2023-01-19T22:42:50.792Z,1.13
2023-01-19T22:47:52.220Z,0.20
2023-01-19T22:52:57.805Z,0.60
2023-01-19T22:57:59.485Z,1.13
2023-01-19T23:03:00.994Z,2.40
2023-01-19T23:08:02.487Z,2.53
2023-01-19T23:13:03.987Z,1.60
2023-01-19T23:18:05.516Z,3.70
2023-01-19T23:23:07.046Z,4.57
2023-01-19T23:28:08.649Z,1.17
2023-01-19T23:33:10.106Z,2.23
2023-01-19T23:38:11.573Z,0.53
2023-01-19T23:43:13.025Z,0.93
2023-01-19T23:48:14.486Z,2.67
2023-01-19T23:53:15.984Z,2.50
2023-01-19T23:58:17.412Z,2.87
